sensor_id;sensor_type;location;lat;lon;timestamp;temperature;humidity
24207;DHT22;12351;52.284;9.160;2023-12-29T00:01:17;9.80;99.90
24207;DHT22;12351;52.284;9.160;2023-12-29T00:04:04;9.80;99.90
24207;DHT22;12351;52.284;9.160;2023-12-29T00:06:52;9.80;99.90
24207;DHT22;12351;52.284;9.160;2023-12-29T00:09:43;9.80;99.90
24207;DHT22;12351;52.284;9.160;2023-12-29T00:12:30;9.80;99.90
24207;DHT22;12351;52.284;9.160;2023-12-29T00:15:18;9.80;99.90
24207;DHT22;12351;52.284;9.160;2023-12-29T00:18:05;9.80;99.90
24207;DHT22;12351;52.284;9.160;2023-12-29T00:20:55;9.80;99.90
24207;DHT22;12351;52.284;9.160;2023-12-29T00:23:42;9.80;99.90
24207;DHT22;12351;52.284;9.160;2023-12-29T00:26:29;9.80;99.90
24207;DHT22;12351;52.284;9.160;2023-12-29T00:29:16;9.80;99.90
24207;DHT22;12351;52.284;9.160;2023-12-29T00:32:03;9.80;99.90
24207;DHT22;12351;52.284;9.160;2023-12-29T00:34:51;9.80;99.90
24207;DHT22;12351;52.284;9.160;2023-12-29T00:37:38;9.80;99.90
24207;DHT22;12351;52.284;9.160;2023-12-29T00:40:25;9.80;99.90
24207;DHT22;12351;52.284;9.160;2023-12-29T00:43:12;9.80;99.90
24207;DHT22;12351;52.284;9.160;2023-12-29T00:48:49;9.80;99.90
24207;DHT22;12351;52.284;9.160;2023-12-29T00:51:39;9.70;99.90
24207;DHT22;12351;52.284;9.160;2023-12-29T00:54:27;9.80;99.90
24207;DHT22;12351;52.284;9.160;2023-12-29T00:57:14;9.80;99.90
24207;DHT22;12351;52.284;9.160;2023-12-29T01:00:04;9.80;99.90
24207;DHT22;12351;52.284;9.160;2023-12-29T01:02:53;9.70;99.90
24207;DHT22;12351;52.284;9.160;2023-12-29T01:05:40;9.80;99.90
24207;DHT22;12351;52.284;9.160;2023-12-29T01:08:27;9.80;99.90
24207;DHT22;12351;52.284;9.160;2023-12-29T01:11:14;9.80;99.90
24207;DHT22;12351;52.284;9.160;2023-12-29T01:14:01;9.80;99.90
24207;DHT22;12351;52.284;9.160;2023-12-29T01:16:48;9.80;99.90
24207;DHT22;12351;52.284;9.160;2023-12-29T01:19:35;9.80;99.90
24207;DHT22;12351;52.284;9.160;2023-12-29T01:22:22;9.80;99.90
24207;DHT22;12351;52.284;9.160;2023-12-29T01:25:09;9.80;99.90
24207;DHT22;12351;52.284;9.160;2023-12-29T01:27:57;9.80;99.90
24207;DHT22;12351;52.284;9.160;2023-12-29T01:30:43;9.80;99.90
24207;DHT22;12351;52.284;9.160;2023-12-29T01:33:30;9.80;99.90
24207;DHT22;12351;52.284;9.160;2023-12-29T01:36:18;9.80;99.90
24207;DHT22;12351;52.284;9.160;2023-12-29T01:39:07;9.80;99.90
24207;DHT22;12351;52.284;9.160;2023-12-29T01:41:56;9.80;99.90
24207;DHT22;12351;52.284;9.160;2023-12-29T01:44:43;9.70;99.90
24207;DHT22;12351;52.284;9.160;2023-12-29T01:47:30;9.80;99.90
24207;DHT22;12351;52.284;9.160;2023-12-29T01:50:19;9.70;99.90
24207;DHT22;12351;52.284;9.160;2023-12-29T01:53:08;9.80;99.90
24207;DHT22;12351;52.284;9.160;2023-12-29T01:55:55;9.80;99.90
24207;DHT22;12351;52.284;9.160;2023-12-29T01:58:44;9.70;99.90
24207;DHT22;12351;52.284;9.160;2023-12-29T02:01:36;9.80;99.90
24207;DHT22;12351;52.284;9.160;2023-12-29T02:04:24;9.80;99.90
24207;DHT22;12351;52.284;9.160;2023-12-29T02:07:12;9.80;99.90
24207;DHT22;12351;52.284;9.160;2023-12-29T02:09:59;9.80;99.90
24207;DHT22;12351;52.284;9.160;2023-12-29T02:12:48;9.80;99.90
24207;DHT22;12351;52.284;9.160;2023-12-29T02:15:35;9.80;99.90
24207;DHT22;12351;52.284;9.160;2023-12-29T02:18:23;9.80;99.90
24207;DHT22;12351;52.284;9.160;2023-12-29T02:21:11;9.80;99.90
24207;DHT22;12351;52.284;9.160;2023-12-29T02:23:58;9.80;99.90
24207;DHT22;12351;52.284;9.160;2023-12-29T02:26:47;9.80;99.90
24207;DHT22;12351;52.284;9.160;2023-12-29T02:29:35;9.80;99.90
24207;DHT22;12351;52.284;9.160;2023-12-29T02:32:25;9.80;99.90
24207;DHT22;12351;52.284;9.160;2023-12-29T02:35:19;9.80;99.90
24207;DHT22;12351;52.284;9.160;2023-12-29T02:38:05;9.80;99.90
24207;DHT22;12351;52.284;9.160;2023-12-29T02:40:52;9.80;99.90
24207;DHT22;12351;52.284;9.160;2023-12-29T02:43:39;9.80;99.90
24207;DHT22;12351;52.284;9.160;2023-12-29T02:46:26;9.80;99.90
24207;DHT22;12351;52.284;9.160;2023-12-29T02:49:14;9.80;99.90
24207;DHT22;12351;52.284;9.160;2023-12-29T02:54:50;9.80;99.90
24207;DHT22;12351;52.284;9.160;2023-12-29T02:57:38;9.80;99.90
24207;DHT22;12351;52.284;9.160;2023-12-29T03:00:25;9.80;99.90
24207;DHT22;12351;52.284;9.160;2023-12-29T03:03:12;9.80;99.90
24207;DHT22;12351;52.284;9.160;2023-12-29T03:06:00;9.80;99.90
24207;DHT22;12351;52.284;9.160;2023-12-29T03:08:47;9.80;99.90
24207;DHT22;12351;52.284;9.160;2023-12-29T03:11:34;9.80;99.90
24207;DHT22;12351;52.284;9.160;2023-12-29T03:14:22;9.80;99.90
24207;DHT22;12351;52.284;9.160;2023-12-29T03:17:09;9.90;99.90
24207;DHT22;12351;52.284;9.160;2023-12-29T03:19:57;9.80;99.90
24207;DHT22;12351;52.284;9.160;2023-12-29T03:22:44;9.80;99.90
24207;DHT22;12351;52.284;9.160;2023-12-29T03:25:31;9.90;99.90
24207;DHT22;12351;52.284;9.160;2023-12-29T03:28:18;9.80;99.90
24207;DHT22;12351;52.284;9.160;2023-12-29T03:31:05;9.80;99.90
24207;DHT22;12351;52.284;9.160;2023-12-29T03:33:52;9.90;99.90
24207;DHT22;12351;52.284;9.160;2023-12-29T03:36:39;9.80;99.90
24207;DHT22;12351;52.284;9.160;2023-12-29T03:39:27;9.80;99.90
24207;DHT22;12351;52.284;9.160;2023-12-29T03:42:15;9.80;99.90
24207;DHT22;12351;52.284;9.160;2023-12-29T03:45:02;9.70;99.90
24207;DHT22;12351;52.284;9.160;2023-12-29T03:47:49;9.70;99.90
24207;DHT22;12351;52.284;9.160;2023-12-29T03:50:37;9.70;99.90
24207;DHT22;12351;52.284;9.160;2023-12-29T03:53:24;9.70;99.90
24207;DHT22;12351;52.284;9.160;2023-12-29T03:56:13;9.70;99.90
24207;DHT22;12351;52.284;9.160;2023-12-29T03:59:00;9.60;99.90
24207;DHT22;12351;52.284;9.160;2023-12-29T04:01:47;9.60;99.90
24207;DHT22;12351;52.284;9.160;2023-12-29T04:04:37;9.60;99.90
24207;DHT22;12351;52.284;9.160;2023-12-29T04:07:24;9.60;99.90
24207;DHT22;12351;52.284;9.160;2023-12-29T04:10:11;9.60;99.90
24207;DHT22;12351;52.284;9.160;2023-12-29T04:12:58;9.60;99.90
24207;DHT22;12351;52.284;9.160;2023-12-29T04:15:46;9.50;99.90
24207;DHT22;12351;52.284;9.160;2023-12-29T04:18:34;9.60;99.90
24207;DHT22;12351;52.284;9.160;2023-12-29T04:21:21;9.50;99.90
24207;DHT22;12351;52.284;9.160;2023-12-29T04:24:08;9.50;99.90
24207;DHT22;12351;52.284;9.160;2023-12-29T04:26:55;9.50;99.90
24207;DHT22;12351;52.284;9.160;2023-12-29T04:29:44;9.50;99.90
24207;DHT22;12351;52.284;9.160;2023-12-29T04:32:31;9.50;99.90
24207;DHT22;12351;52.284;9.160;2023-12-29T04:35:18;9.50;99.90
24207;DHT22;12351;52.284;9.160;2023-12-29T04:38:06;9.50;99.90
24207;DHT22;12351;52.284;9.160;2023-12-29T04:40:53;9.50;99.90
24207;DHT22;12351;52.284;9.160;2023-12-29T04:43:40;9.50;99.90
24207;DHT22;12351;52.284;9.160;2023-12-29T04:46:27;9.50;99.90
24207;DHT22;12351;52.284;9.160;2023-12-29T04:49:14;9.50;99.90
24207;DHT22;12351;52.284;9.160;2023-12-29T04:52:02;9.50;99.90
24207;DHT22;12351;52.284;9.160;2023-12-29T04:54:49;9.40;99.90
24207;DHT22;12351;52.284;9.160;2023-12-29T04:57:36;9.40;99.90
24207;DHT22;12351;52.284;9.160;2023-12-29T05:00:23;9.40;99.90
24207;DHT22;12351;52.284;9.160;2023-12-29T05:03:10;9.30;99.90
24207;DHT22;12351;52.284;9.160;2023-12-29T05:05:57;9.30;99.90
24207;DHT22;12351;52.284;9.160;2023-12-29T05:08:44;9.30;99.90
24207;DHT22;12351;52.284;9.160;2023-12-29T05:11:31;9.30;99.90
24207;DHT22;12351;52.284;9.160;2023-12-29T05:14:18;9.30;99.90
24207;DHT22;12351;52.284;9.160;2023-12-29T05:19:57;9.30;99.90
24207;DHT22;12351;52.284;9.160;2023-12-29T05:22:44;9.30;99.90
24207;DHT22;12351;52.284;9.160;2023-12-29T05:25:31;9.30;99.90
24207;DHT22;12351;52.284;9.160;2023-12-29T05:28:18;9.30;99.90
24207;DHT22;12351;52.284;9.160;2023-12-29T05:31:06;9.30;99.90
24207;DHT22;12351;52.284;9.160;2023-12-29T05:33:53;9.30;99.90
24207;DHT22;12351;52.284;9.160;2023-12-29T05:36:41;9.30;99.90
24207;DHT22;12351;52.284;9.160;2023-12-29T05:39:28;9.30;99.90
24207;DHT22;12351;52.284;9.160;2023-12-29T05:42:15;9.30;99.90
24207;DHT22;12351;52.284;9.160;2023-12-29T05:45:03;9.30;99.90
24207;DHT22;12351;52.284;9.160;2023-12-29T05:47:50;9.30;99.90
24207;DHT22;12351;52.284;9.160;2023-12-29T05:50:37;9.30;99.90
24207;DHT22;12351;52.284;9.160;2023-12-29T05:53:24;9.30;99.90
24207;DHT22;12351;52.284;9.160;2023-12-29T05:56:13;9.30;99.90
24207;DHT22;12351;52.284;9.160;2023-12-29T05:59:00;9.30;99.90
24207;DHT22;12351;52.284;9.160;2023-12-29T06:01:47;9.30;99.90
24207;DHT22;12351;52.284;9.160;2023-12-29T06:04:37;9.30;99.90
24207;DHT22;12351;52.284;9.160;2023-12-29T06:07:24;9.30;99.90
24207;DHT22;12351;52.284;9.160;2023-12-29T06:10:11;9.30;99.90
24207;DHT22;12351;52.284;9.160;2023-12-29T06:13:00;9.20;99.90
24207;DHT22;12351;52.284;9.160;2023-12-29T06:15:48;9.20;99.90
24207;DHT22;12351;52.284;9.160;2023-12-29T06:18:36;9.20;99.90
24207;DHT22;12351;52.284;9.160;2023-12-29T06:21:23;9.20;99.90
24207;DHT22;12351;52.284;9.160;2023-12-29T06:24:11;9.20;99.90
24207;DHT22;12351;52.284;9.160;2023-12-29T06:26:58;9.30;99.90
24207;DHT22;12351;52.284;9.160;2023-12-29T06:29:45;9.20;99.90
24207;DHT22;12351;52.284;9.160;2023-12-29T06:32:32;9.20;99.90
24207;DHT22;12351;52.284;9.160;2023-12-29T06:35:19;9.20;99.90
24207;DHT22;12351;52.284;9.160;2023-12-29T06:38:09;9.20;99.90
24207;DHT22;12351;52.284;9.160;2023-12-29T06:41:01;9.30;99.90
24207;DHT22;12351;52.284;9.160;2023-12-29T06:43:48;9.20;99.90
24207;DHT22;12351;52.284;9.160;2023-12-29T06:46:37;9.20;99.90
24207;DHT22;12351;52.284;9.160;2023-12-29T06:49:24;9.20;99.90
24207;DHT22;12351;52.284;9.160;2023-12-29T06:52:11;9.30;99.90
24207;DHT22;12351;52.284;9.160;2023-12-29T06:55:01;9.30;99.90
24207;DHT22;12351;52.284;9.160;2023-12-29T06:57:48;9.30;99.90
24207;DHT22;12351;52.284;9.160;2023-12-29T07:00:35;9.30;99.90
24207;DHT22;12351;52.284;9.160;2023-12-29T07:03:22;9.30;99.90
24207;DHT22;12351;52.284;9.160;2023-12-29T07:06:10;9.30;99.90
24207;DHT22;12351;52.284;9.160;2023-12-29T07:08:57;9.30;99.90
24207;DHT22;12351;52.284;9.160;2023-12-29T07:11:48;9.30;99.90
24207;DHT22;12351;52.284;9.160;2023-12-29T07:14:40;9.30;99.90
24207;DHT22;12351;52.284;9.160;2023-12-29T07:17:27;9.30;99.90
24207;DHT22;12351;52.284;9.160;2023-12-29T07:20:15;9.30;99.90
24207;DHT22;12351;52.284;9.160;2023-12-29T07:23:03;9.30;99.90
24207;DHT22;12351;52.284;9.160;2023-12-29T07:25:50;9.30;99.90
24207;DHT22;12351;52.284;9.160;2023-12-29T07:28:37;9.30;99.90
24207;DHT22;12351;52.284;9.160;2023-12-29T07:31:25;9.30;99.90
24207;DHT22;12351;52.284;9.160;2023-12-29T07:34:13;9.30;99.90
24207;DHT22;12351;52.284;9.160;2023-12-29T07:37:00;9.40;99.90
24207;DHT22;12351;52.284;9.160;2023-12-29T07:39:46;9.30;99.90
24207;DHT22;12351;52.284;9.160;2023-12-29T07:42:33;9.40;99.90
24207;DHT22;12351;52.284;9.160;2023-12-29T07:45:21;9.40;99.90
24207;DHT22;12351;52.284;9.160;2023-12-29T07:48:08;9.40;99.90
24207;DHT22;12351;52.284;9.160;2023-12-29T07:50:57;9.40;99.90
24207;DHT22;12351;52.284;9.160;2023-12-29T07:53:45;9.40;99.90
24207;DHT22;12351;52.284;9.160;2023-12-29T07:56:35;9.40;99.90
24207;DHT22;12351;52.284;9.160;2023-12-29T07:59:23;9.40;99.90
24207;DHT22;12351;52.284;9.160;2023-12-29T08:02:10;9.40;99.90
24207;DHT22;12351;52.284;9.160;2023-12-29T08:04:58;9.40;99.90
24207;DHT22;12351;52.284;9.160;2023-12-29T08:07:45;9.40;99.90
24207;DHT22;12351;52.284;9.160;2023-12-29T08:10:32;9.40;99.90
24207;DHT22;12351;52.284;9.160;2023-12-29T08:13:19;9.40;99.90
24207;DHT22;12351;52.284;9.160;2023-12-29T08:16:07;9.40;99.90
24207;DHT22;12351;52.284;9.160;2023-12-29T08:18:53;9.40;99.90
24207;DHT22;12351;52.284;9.160;2023-12-29T08:21:41;9.40;99.90
24207;DHT22;12351;52.284;9.160;2023-12-29T08:30:06;9.50;99.90
24207;DHT22;12351;52.284;9.160;2023-12-29T08:32:54;9.50;99.90
24207;DHT22;12351;52.284;9.160;2023-12-29T08:35:41;9.50;99.90
24207;DHT22;12351;52.284;9.160;2023-12-29T08:38:28;9.50;99.90
24207;DHT22;12351;52.284;9.160;2023-12-29T08:41:16;9.50;99.90
24207;DHT22;12351;52.284;9.160;2023-12-29T08:44:04;9.50;99.90
24207;DHT22;12351;52.284;9.160;2023-12-29T08:46:51;9.50;99.90
24207;DHT22;12351;52.284;9.160;2023-12-29T08:49:38;9.50;99.90
24207;DHT22;12351;52.284;9.160;2023-12-29T08:52:26;9.50;99.90
24207;DHT22;12351;52.284;9.160;2023-12-29T08:55:14;9.50;99.90
24207;DHT22;12351;52.284;9.160;2023-12-29T08:58:00;9.50;99.90
24207;DHT22;12351;52.284;9.160;2023-12-29T09:00:48;9.50;99.90
24207;DHT22;12351;52.284;9.160;2023-12-29T09:03:35;9.50;99.90
24207;DHT22;12351;52.284;9.160;2023-12-29T09:06:22;9.50;99.90
24207;DHT22;12351;52.284;9.160;2023-12-29T09:09:09;9.60;99.90
24207;DHT22;12351;52.284;9.160;2023-12-29T09:11:57;9.60;99.90
24207;DHT22;12351;52.284;9.160;2023-12-29T09:14:46;9.50;99.90
24207;DHT22;12351;52.284;9.160;2023-12-29T09:17:34;9.50;99.90
24207;DHT22;12351;52.284;9.160;2023-12-29T09:23:10;9.40;99.90
24207;DHT22;12351;52.284;9.160;2023-12-29T09:25:56;9.40;99.90
24207;DHT22;12351;52.284;9.160;2023-12-29T09:28:44;9.40;99.90
24207;DHT22;12351;52.284;9.160;2023-12-29T09:31:31;9.40;99.90
24207;DHT22;12351;52.284;9.160;2023-12-29T09:34:18;9.40;99.90
24207;DHT22;12351;52.284;9.160;2023-12-29T09:37:05;9.40;99.90
24207;DHT22;12351;52.284;9.160;2023-12-29T09:39:53;9.40;99.90
24207;DHT22;12351;52.284;9.160;2023-12-29T09:42:42;9.30;99.90
24207;DHT22;12351;52.284;9.160;2023-12-29T09:45:30;9.30;99.90
24207;DHT22;12351;52.284;9.160;2023-12-29T09:48:20;9.30;99.90
24207;DHT22;12351;52.284;9.160;2023-12-29T09:51:10;9.30;99.90
24207;DHT22;12351;52.284;9.160;2023-12-29T09:53:58;9.30;99.90
24207;DHT22;12351;52.284;9.160;2023-12-29T09:56:46;9.20;99.90
24207;DHT22;12351;52.284;9.160;2023-12-29T10:02:23;9.20;99.90
24207;DHT22;12351;52.284;9.160;2023-12-29T10:05:10;9.20;99.90
24207;DHT22;12351;52.284;9.160;2023-12-29T10:07:58;9.20;99.90
24207;DHT22;12351;52.284;9.160;2023-12-29T10:10:47;9.20;99.90
24207;DHT22;12351;52.284;9.160;2023-12-29T10:13:36;9.20;99.90
24207;DHT22;12351;52.284;9.160;2023-12-29T10:22:08;9.20;99.90
24207;DHT22;12351;52.284;9.160;2023-12-29T10:24:54;9.20;99.90
24207;DHT22;12351;52.284;9.160;2023-12-29T10:27:41;9.20;99.90
24207;DHT22;12351;52.284;9.160;2023-12-29T10:30:29;9.20;99.90
24207;DHT22;12351;52.284;9.160;2023-12-29T10:33:18;9.20;99.90
24207;DHT22;12351;52.284;9.160;2023-12-29T10:36:07;9.20;99.90
24207;DHT22;12351;52.284;9.160;2023-12-29T10:39:05;9.20;99.90
24207;DHT22;12351;52.284;9.160;2023-12-29T10:41:44;9.20;99.90
24207;DHT22;12351;52.284;9.160;2023-12-29T10:44:33;9.30;99.90
24207;DHT22;12351;52.284;9.160;2023-12-29T10:47:20;9.30;99.90
24207;DHT22;12351;52.284;9.160;2023-12-29T10:50:07;9.30;99.90
24207;DHT22;12351;52.284;9.160;2023-12-29T10:55:44;9.30;99.90
24207;DHT22;12351;52.284;9.160;2023-12-29T10:58:32;9.30;99.90
24207;DHT22;12351;52.284;9.160;2023-12-29T11:01:20;9.30;99.90
24207;DHT22;12351;52.284;9.160;2023-12-29T11:04:09;9.30;99.90
24207;DHT22;12351;52.284;9.160;2023-12-29T11:06:57;9.30;99.90
24207;DHT22;12351;52.284;9.160;2023-12-29T11:09:44;9.30;99.90
24207;DHT22;12351;52.284;9.160;2023-12-29T11:15:22;9.40;99.90
24207;DHT22;12351;52.284;9.160;2023-12-29T11:18:13;9.40;99.90
24207;DHT22;12351;52.284;9.160;2023-12-29T11:21:00;9.40;99.90
24207;DHT22;12351;52.284;9.160;2023-12-29T11:23:48;9.40;99.90
24207;DHT22;12351;52.284;9.160;2023-12-29T11:26:36;9.40;99.90
24207;DHT22;12351;52.284;9.160;2023-12-29T11:29:25;9.40;99.90
24207;DHT22;12351;52.284;9.160;2023-12-29T11:32:16;9.50;99.90
24207;DHT22;12351;52.284;9.160;2023-12-29T11:40:48;9.50;99.90
24207;DHT22;12351;52.284;9.160;2023-12-29T11:43:34;9.50;99.90
24207;DHT22;12351;52.284;9.160;2023-12-29T11:49:11;9.50;99.90
24207;DHT22;12351;52.284;9.160;2023-12-29T11:51:58;9.60;99.90
24207;DHT22;12351;52.284;9.160;2023-12-29T11:54:50;9.60;99.90
24207;DHT22;12351;52.284;9.160;2023-12-29T11:57:38;9.60;99.90
24207;DHT22;12351;52.284;9.160;2023-12-29T12:06:09;9.60;99.90
24207;DHT22;12351;52.284;9.160;2023-12-29T12:11:48;9.70;99.90
24207;DHT22;12351;52.284;9.160;2023-12-29T12:17:30;9.70;99.90
24207;DHT22;12351;52.284;9.160;2023-12-29T12:20:18;9.70;99.90
24207;DHT22;12351;52.284;9.160;2023-12-29T12:25:58;9.70;99.90
24207;DHT22;12351;52.284;9.160;2023-12-29T12:28:52;9.70;99.90
24207;DHT22;12351;52.284;9.160;2023-12-29T12:34:36;9.70;99.90
24207;DHT22;12351;52.284;9.160;2023-12-29T12:37:22;9.70;99.90
24207;DHT22;12351;52.284;9.160;2023-12-29T12:40:10;9.80;99.90
24207;DHT22;12351;52.284;9.160;2023-12-29T12:42:58;9.70;99.90
24207;DHT22;12351;52.284;9.160;2023-12-29T12:45:48;9.70;99.90
24207;DHT22;12351;52.284;9.160;2023-12-29T12:48:40;9.70;99.90
24207;DHT22;12351;52.284;9.160;2023-12-29T12:51:26;9.70;99.90
24207;DHT22;12351;52.284;9.160;2023-12-29T12:54:15;9.70;99.90
24207;DHT22;12351;52.284;9.160;2023-12-29T12:57:02;9.70;99.90
24207;DHT22;12351;52.284;9.160;2023-12-29T12:59:50;9.80;99.90
24207;DHT22;12351;52.284;9.160;2023-12-29T13:02:40;9.80;99.90
24207;DHT22;12351;52.284;9.160;2023-12-29T13:05:27;9.80;99.90
24207;DHT22;12351;52.284;9.160;2023-12-29T13:08:17;9.80;99.90
24207;DHT22;12351;52.284;9.160;2023-12-29T13:11:05;9.80;99.90
24207;DHT22;12351;52.284;9.160;2023-12-29T13:13:53;9.80;99.90
24207;DHT22;12351;52.284;9.160;2023-12-29T13:16:42;9.80;99.90
24207;DHT22;12351;52.284;9.160;2023-12-29T13:19:29;9.80;99.90
24207;DHT22;12351;52.284;9.160;2023-12-29T13:22:17;9.80;99.90
24207;DHT22;12351;52.284;9.160;2023-12-29T13:25:06;9.90;99.90
24207;DHT22;12351;52.284;9.160;2023-12-29T13:27:54;9.80;99.90
24207;DHT22;12351;52.284;9.160;2023-12-29T13:30:42;9.80;99.90
24207;DHT22;12351;52.284;9.160;2023-12-29T13:33:32;9.80;99.90
24207;DHT22;12351;52.284;9.160;2023-12-29T13:39:14;9.80;99.90
24207;DHT22;12351;52.284;9.160;2023-12-29T13:42:02;9.90;99.90
24207;DHT22;12351;52.284;9.160;2023-12-29T13:44:50;9.90;99.90
24207;DHT22;12351;52.284;9.160;2023-12-29T13:47:38;9.90;99.90
24207;DHT22;12351;52.284;9.160;2023-12-29T13:53:19;9.90;99.90
24207;DHT22;12351;52.284;9.160;2023-12-29T13:56:09;9.90;99.90
24207;DHT22;12351;52.284;9.160;2023-12-29T13:58:56;9.90;99.90
24207;DHT22;12351;52.284;9.160;2023-12-29T14:01:43;9.90;99.90
24207;DHT22;12351;52.284;9.160;2023-12-29T14:04:30;9.90;99.90
24207;DHT22;12351;52.284;9.160;2023-12-29T14:07:19;9.90;99.90
24207;DHT22;12351;52.284;9.160;2023-12-29T14:10:07;9.90;99.90
24207;DHT22;12351;52.284;9.160;2023-12-29T14:13:02;9.90;99.90
24207;DHT22;12351;52.284;9.160;2023-12-29T14:15:46;9.90;99.90
24207;DHT22;12351;52.284;9.160;2023-12-29T14:24:15;9.90;99.90
24207;DHT22;12351;52.284;9.160;2023-12-29T14:27:02;9.80;99.90
24207;DHT22;12351;52.284;9.160;2023-12-29T14:29:49;9.80;99.90
24207;DHT22;12351;52.284;9.160;2023-12-29T14:32:36;9.90;99.90
24207;DHT22;12351;52.284;9.160;2023-12-29T14:35:25;9.80;99.90
24207;DHT22;12351;52.284;9.160;2023-12-29T14:38:12;9.80;99.90
24207;DHT22;12351;52.284;9.160;2023-12-29T14:41:02;9.80;99.90
24207;DHT22;12351;52.284;9.160;2023-12-29T14:43:51;9.80;99.90
24207;DHT22;12351;52.284;9.160;2023-12-29T14:46:41;9.90;99.90
24207;DHT22;12351;52.284;9.160;2023-12-29T14:49:29;9.80;99.90
24207;DHT22;12351;52.284;9.160;2023-12-29T14:52:17;9.80;99.90
24207;DHT22;12351;52.284;9.160;2023-12-29T14:55:04;9.80;99.90
24207;DHT22;12351;52.284;9.160;2023-12-29T14:57:54;9.80;99.90
24207;DHT22;12351;52.284;9.160;2023-12-29T15:00:44;9.80;99.90
24207;DHT22;12351;52.284;9.160;2023-12-29T15:03:38;9.80;99.90
24207;DHT22;12351;52.284;9.160;2023-12-29T15:06:25;9.80;99.90
24207;DHT22;12351;52.284;9.160;2023-12-29T15:09:12;9.70;99.90
24207;DHT22;12351;52.284;9.160;2023-12-29T15:12:02;9.70;99.90
24207;DHT22;12351;52.284;9.160;2023-12-29T15:14:51;9.80;99.90
24207;DHT22;12351;52.284;9.160;2023-12-29T15:17:39;9.80;99.90
24207;DHT22;12351;52.284;9.160;2023-12-29T15:20:26;9.70;99.90
24207;DHT22;12351;52.284;9.160;2023-12-29T15:23:13;9.70;99.90
24207;DHT22;12351;52.284;9.160;2023-12-29T15:26:00;9.70;99.90
24207;DHT22;12351;52.284;9.160;2023-12-29T15:28:47;9.70;99.90
24207;DHT22;12351;52.284;9.160;2023-12-29T15:31:34;9.70;99.90
24207;DHT22;12351;52.284;9.160;2023-12-29T15:34:27;9.70;99.90
24207;DHT22;12351;52.284;9.160;2023-12-29T15:37:14;9.70;99.90
24207;DHT22;12351;52.284;9.160;2023-12-29T15:40:02;9.70;99.90
24207;DHT22;12351;52.284;9.160;2023-12-29T15:42:50;9.70;99.90
24207;DHT22;12351;52.284;9.160;2023-12-29T15:45:37;9.70;99.90
24207;DHT22;12351;52.284;9.160;2023-12-29T15:48:24;9.70;99.90
24207;DHT22;12351;52.284;9.160;2023-12-29T15:51:11;9.70;99.90
24207;DHT22;12351;52.284;9.160;2023-12-29T15:53:59;9.70;99.90
24207;DHT22;12351;52.284;9.160;2023-12-29T15:56:46;9.70;99.90
24207;DHT22;12351;52.284;9.160;2023-12-29T15:59:33;9.70;99.90
24207;DHT22;12351;52.284;9.160;2023-12-29T16:02:20;9.70;99.90
24207;DHT22;12351;52.284;9.160;2023-12-29T16:05:07;9.60;99.90
24207;DHT22;12351;52.284;9.160;2023-12-29T16:07:55;9.60;99.90
24207;DHT22;12351;52.284;9.160;2023-12-29T16:10:42;9.60;99.90
24207;DHT22;12351;52.284;9.160;2023-12-29T16:13:29;9.60;99.90
24207;DHT22;12351;52.284;9.160;2023-12-29T16:16:17;9.60;99.90
24207;DHT22;12351;52.284;9.160;2023-12-29T16:19:04;9.60;99.90
24207;DHT22;12351;52.284;9.160;2023-12-29T16:21:51;9.60;99.90
24207;DHT22;12351;52.284;9.160;2023-12-29T16:24:39;9.60;99.90
24207;DHT22;12351;52.284;9.160;2023-12-29T16:27:26;9.60;99.90
24207;DHT22;12351;52.284;9.160;2023-12-29T16:30:13;9.60;99.90
24207;DHT22;12351;52.284;9.160;2023-12-29T16:33:01;9.60;99.90
24207;DHT22;12351;52.284;9.160;2023-12-29T16:35:48;9.60;99.90
24207;DHT22;12351;52.284;9.160;2023-12-29T16:38:35;9.60;99.90
24207;DHT22;12351;52.284;9.160;2023-12-29T16:41:22;9.50;99.90
24207;DHT22;12351;52.284;9.160;2023-12-29T16:44:09;9.50;99.90
24207;DHT22;12351;52.284;9.160;2023-12-29T16:46:56;9.50;99.90
24207;DHT22;12351;52.284;9.160;2023-12-29T16:49:44;9.50;99.90
24207;DHT22;12351;52.284;9.160;2023-12-29T16:52:31;9.50;99.90
24207;DHT22;12351;52.284;9.160;2023-12-29T16:55:17;9.50;99.90
24207;DHT22;12351;52.284;9.160;2023-12-29T16:58:05;9.50;99.90
24207;DHT22;12351;52.284;9.160;2023-12-29T17:00:53;9.40;99.90
24207;DHT22;12351;52.284;9.160;2023-12-29T17:03:40;9.40;99.90
24207;DHT22;12351;52.284;9.160;2023-12-29T17:06:27;9.40;99.90
24207;DHT22;12351;52.284;9.160;2023-12-29T17:09:14;9.30;99.90
24207;DHT22;12351;52.284;9.160;2023-12-29T17:12:02;9.30;99.90
24207;DHT22;12351;52.284;9.160;2023-12-29T17:14:49;9.30;99.90
24207;DHT22;12351;52.284;9.160;2023-12-29T17:17:36;9.20;99.90
24207;DHT22;12351;52.284;9.160;2023-12-29T17:20:23;9.20;99.90
24207;DHT22;12351;52.284;9.160;2023-12-29T17:23:12;9.20;99.90
24207;DHT22;12351;52.284;9.160;2023-12-29T17:25:59;9.20;99.90
24207;DHT22;12351;52.284;9.160;2023-12-29T17:28:47;9.10;99.90
24207;DHT22;12351;52.284;9.160;2023-12-29T17:34:25;9.10;99.90
24207;DHT22;12351;52.284;9.160;2023-12-29T17:37:12;9.10;99.90
24207;DHT22;12351;52.284;9.160;2023-12-29T17:39:59;9.10;99.90
24207;DHT22;12351;52.284;9.160;2023-12-29T17:42:47;9.10;99.90
24207;DHT22;12351;52.284;9.160;2023-12-29T17:45:33;9.10;99.90
24207;DHT22;12351;52.284;9.160;2023-12-29T17:48:20;9.00;99.90
24207;DHT22;12351;52.284;9.160;2023-12-29T17:51:07;9.00;99.90
24207;DHT22;12351;52.284;9.160;2023-12-29T17:53:55;9.00;99.90
24207;DHT22;12351;52.284;9.160;2023-12-29T17:56:42;9.00;99.90
24207;DHT22;12351;52.284;9.160;2023-12-29T17:59:31;8.90;99.90
24207;DHT22;12351;52.284;9.160;2023-12-29T18:02:18;8.90;99.90
24207;DHT22;12351;52.284;9.160;2023-12-29T18:05:05;8.90;99.90
24207;DHT22;12351;52.284;9.160;2023-12-29T18:07:52;8.90;99.90
24207;DHT22;12351;52.284;9.160;2023-12-29T18:10:40;8.90;99.90
24207;DHT22;12351;52.284;9.160;2023-12-29T18:13:27;8.90;99.90
24207;DHT22;12351;52.284;9.160;2023-12-29T18:16:13;8.90;99.90
24207;DHT22;12351;52.284;9.160;2023-12-29T18:19:01;8.80;99.90
24207;DHT22;12351;52.284;9.160;2023-12-29T18:21:50;8.90;99.90
24207;DHT22;12351;52.284;9.160;2023-12-29T18:24:37;8.90;99.90
24207;DHT22;12351;52.284;9.160;2023-12-29T18:27:25;8.90;99.90
24207;DHT22;12351;52.284;9.160;2023-12-29T18:30:17;8.90;99.90
24207;DHT22;12351;52.284;9.160;2023-12-29T18:33:02;8.90;99.90
24207;DHT22;12351;52.284;9.160;2023-12-29T18:35:51;8.90;99.90
24207;DHT22;12351;52.284;9.160;2023-12-29T18:38:40;8.90;99.90
24207;DHT22;12351;52.284;9.160;2023-12-29T18:41:27;8.90;99.90
24207;DHT22;12351;52.284;9.160;2023-12-29T18:44:15;8.90;99.90
24207;DHT22;12351;52.284;9.160;2023-12-29T18:47:02;9.00;99.90
24207;DHT22;12351;52.284;9.160;2023-12-29T18:49:51;9.00;99.90
24207;DHT22;12351;52.284;9.160;2023-12-29T18:52:38;9.00;99.90
24207;DHT22;12351;52.284;9.160;2023-12-29T18:55:28;9.00;99.90
24207;DHT22;12351;52.284;9.160;2023-12-29T18:58:15;9.00;99.90
24207;DHT22;12351;52.284;9.160;2023-12-29T19:01:05;9.00;99.90
24207;DHT22;12351;52.284;9.160;2023-12-29T19:03:52;9.00;99.90
24207;DHT22;12351;52.284;9.160;2023-12-29T19:06:39;9.00;99.90